createdAt,value
2018-02-19T00:00:21.990Z,4.20
2018-02-19T00:02:49.452Z,4.20
2018-02-19T00:05:16.915Z,4.20
2018-02-19T00:07:44.402Z,4.20
2018-02-19T00:10:11.870Z,4.20
2018-02-19T00:12:39.331Z,4.20
2018-02-19T00:15:07.589Z,4.10
2018-02-19T00:17:35.052Z,4.10
2018-02-19T00:20:02.504Z,4.20
2018-02-19T00:22:30.112Z,4.20
2018-02-19T00:24:57.622Z,4.10
2018-02-19T00:27:25.238Z,3.90
2018-02-19T00:29:52.718Z,4.00
2018-02-19T00:32:20.181Z,4.10
2018-02-19T00:34:47.662Z,4.10
2018-02-19T00:37:15.119Z,4.10
2018-02-19T00:39:42.607Z,4.10
2018-02-19T00:42:10.150Z,4.00
2018-02-19T00:44:38.826Z,4.00
2018-02-19T00:47:07.064Z,4.00
2018-02-19T00:49:34.546Z,4.00
2018-02-19T00:52:02.060Z,4.00
2018-02-19T00:54:29.549Z,4.00
2018-02-19T00:56:57.113Z,4.00
2018-02-19T00:59:24.673Z,4.00
2018-02-19T01:01:52.190Z,4.00
2018-02-19T01:04:19.653Z,4.00
2018-02-19T01:06:47.134Z,3.90
2018-02-19T01:09:14.584Z,4.00
2018-02-19T01:11:42.059Z,3.90
2018-02-19T01:14:09.526Z,3.80
2018-02-19T01:16:36.991Z,3.70
2018-02-19T01:19:05.220Z,3.60
2018-02-19T01:21:32.705Z,3.60
2018-02-19T01:24:00.260Z,3.60
2018-02-19T01:26:27.824Z,3.60
2018-02-19T01:28:55.298Z,3.60
2018-02-19T01:31:23.522Z,3.60
2018-02-19T01:33:51.005Z,3.60
2018-02-19T01:36:18.463Z,3.50
2018-02-19T01:38:45.937Z,3.60
2018-02-19T01:41:14.177Z,3.60
2018-02-19T01:43:41.637Z,3.60
2018-02-19T01:46:09.105Z,3.60
2018-02-19T01:48:36.573Z,3.60
2018-02-19T01:51:04.026Z,3.50
2018-02-19T01:53:31.508Z,3.40
2018-02-19T01:55:59.761Z,3.40
2018-02-19T01:58:27.227Z,3.40
2018-02-19T02:00:54.684Z,3.50
2018-02-19T02:03:22.947Z,3.60
2018-02-19T02:05:50.414Z,3.50
2018-02-19T02:08:18.640Z,3.50
2018-02-19T02:10:46.137Z,3.50
2018-02-19T02:13:13.597Z,3.50
2018-02-19T02:15:41.070Z,3.50
2018-02-19T02:18:09.295Z,3.50
2018-02-19T02:20:36.765Z,3.40
2018-02-19T02:23:04.221Z,3.40
2018-02-19T02:25:31.790Z,3.40
2018-02-19T02:27:59.251Z,3.50
2018-02-19T02:30:26.823Z,3.50
2018-02-19T02:32:55.141Z,3.40
2018-02-19T02:35:22.646Z,3.30
2018-02-19T02:37:50.119Z,3.40
2018-02-19T02:40:18.350Z,3.40
2018-02-19T02:42:45.834Z,3.40
2018-02-19T02:45:13.494Z,3.40
2018-02-19T02:47:41.064Z,3.40
2018-02-19T02:50:08.518Z,3.40
2018-02-19T02:52:36.000Z,3.40
2018-02-19T02:55:03.525Z,3.40
2018-02-19T02:57:31.137Z,3.40
2018-02-19T02:59:58.597Z,3.30
2018-02-19T03:02:26.057Z,3.30
2018-02-19T03:04:53.538Z,3.20
2018-02-19T03:07:20.993Z,3.20
2018-02-19T03:09:48.461Z,3.20
2018-02-19T03:12:16.107Z,3.30
2018-02-19T03:14:43.573Z,3.30
2018-02-19T03:17:11.028Z,3.30
2018-02-19T03:19:38.497Z,3.30
2018-02-19T03:22:05.952Z,3.20
2018-02-19T03:24:33.430Z,3.20
2018-02-19T03:27:01.672Z,3.20
2018-02-19T03:29:29.136Z,3.20
2018-02-19T03:31:56.596Z,3.20
2018-02-19T03:34:24.182Z,3.20
2018-02-19T03:36:52.433Z,3.10
2018-02-19T03:39:20.005Z,3.10
2018-02-19T03:41:47.476Z,3.20
2018-02-19T03:44:15.711Z,3.10
2018-02-19T03:46:43.220Z,3.10
2018-02-19T03:49:10.945Z,3.10
2018-02-19T03:51:38.456Z,3.00
2018-02-19T03:54:05.909Z,3.00
2018-02-19T03:56:33.365Z,3.00
2018-02-19T03:59:00.877Z,3.10
2018-02-19T04:01:28.441Z,3.10
2018-02-19T04:03:55.908Z,3.10
2018-02-19T04:06:24.155Z,3.00
2018-02-19T04:08:51.727Z,3.00
2018-02-19T04:11:19.181Z,3.00
2018-02-19T04:13:46.747Z,2.90
2018-02-19T04:16:14.197Z,2.90
2018-02-19T04:18:41.665Z,2.90
2018-02-19T04:21:09.214Z,2.90
2018-02-19T04:23:36.677Z,2.90
2018-02-19T04:26:04.152Z,2.90
2018-02-19T04:28:32.377Z,2.90
2018-02-19T04:30:59.844Z,2.80
2018-02-19T04:33:27.306Z,2.80
2018-02-19T04:35:54.873Z,2.70
2018-02-19T04:38:22.342Z,2.70
2018-02-19T04:40:49.807Z,2.60
2018-02-19T04:43:18.046Z,2.50
2018-02-19T04:45:52.149Z,2.50
2018-02-19T04:48:19.684Z,2.60
2018-02-19T04:50:47.140Z,2.50
2018-02-19T04:53:14.643Z,2.50
2018-02-19T04:55:42.205Z,2.50
2018-02-19T04:58:09.662Z,2.50
2018-02-19T05:00:37.213Z,2.60
2018-02-19T05:03:04.778Z,2.50
2018-02-19T05:05:32.348Z,2.50
2018-02-19T05:07:59.900Z,2.60
2018-02-19T05:10:27.485Z,2.50
2018-02-19T05:12:55.785Z,2.50
2018-02-19T05:15:23.289Z,2.40
2018-02-19T05:17:50.744Z,2.50
2018-02-19T05:20:18.205Z,2.50
2018-02-19T05:22:45.661Z,2.50
2018-02-19T05:25:13.126Z,2.50
2018-02-19T05:27:40.594Z,2.50
2018-02-19T05:30:08.825Z,2.50
2018-02-19T05:32:36.288Z,2.40
2018-02-19T05:35:03.758Z,2.50
2018-02-19T05:37:31.221Z,2.50
2018-02-19T05:39:58.786Z,2.50
2018-02-19T05:42:26.253Z,2.40
2018-02-19T05:44:54.491Z,2.40
2018-02-19T05:47:21.950Z,2.30
2018-02-19T05:49:49.422Z,2.40
2018-02-19T05:52:16.974Z,2.40
2018-02-19T05:54:44.533Z,2.40
2018-02-19T05:57:12.090Z,2.40
2018-02-19T05:59:39.619Z,2.40
2018-02-19T06:02:07.046Z,2.40
2018-02-19T06:04:34.506Z,2.40
2018-02-19T06:07:01.966Z,2.40
2018-02-19T06:09:29.485Z,2.50
2018-02-19T06:11:57.074Z,2.50
2018-02-19T06:14:25.377Z,2.40
2018-02-19T06:16:52.842Z,2.40
2018-02-19T06:19:20.333Z,2.40
2018-02-19T06:21:47.892Z,2.40
2018-02-19T06:24:15.451Z,2.40
2018-02-19T06:26:43.013Z,2.40
2018-02-19T06:29:10.479Z,2.40
2018-02-19T06:31:38.741Z,2.30
2018-02-19T06:34:06.355Z,2.30
2018-02-19T06:36:33.815Z,2.30
2018-02-19T06:39:01.372Z,2.20
2018-02-19T06:41:28.878Z,2.30
2018-02-19T06:43:56.433Z,2.40
2018-02-19T06:46:23.905Z,2.40
2018-02-19T06:48:52.140Z,2.50
2018-02-19T06:51:19.609Z,2.40
2018-02-19T06:53:47.091Z,2.50
2018-02-19T06:56:15.331Z,2.40
2018-02-19T06:58:42.809Z,2.40
2018-02-19T07:01:10.287Z,2.30
2018-02-19T07:03:38.567Z,2.30
2018-02-19T07:06:06.797Z,2.30
2018-02-19T07:08:34.278Z,2.20
2018-02-19T07:11:01.747Z,2.20
2018-02-19T07:13:30.010Z,2.40
2018-02-19T07:15:57.477Z,2.30
2018-02-19T07:18:24.966Z,2.40
2018-02-19T07:20:52.437Z,2.30
2018-02-19T07:23:19.900Z,2.20
2018-02-19T07:25:47.400Z,2.20
2018-02-19T07:28:14.863Z,2.20
2018-02-19T07:30:42.329Z,2.30
2018-02-19T07:33:10.563Z,2.40
2018-02-19T07:35:38.159Z,2.30
2018-02-19T07:38:06.447Z,2.50
2018-02-19T07:40:34.077Z,2.50
2018-02-19T07:43:03.395Z,2.60
2018-02-19T07:45:31.633Z,2.70
2018-02-19T07:47:59.119Z,2.70
2018-02-19T07:50:26.609Z,2.80
2018-02-19T07:52:54.138Z,3.00
2018-02-19T07:55:22.507Z,3.00
2018-02-19T07:57:49.973Z,3.00
2018-02-19T08:00:18.279Z,3.30
2018-02-19T08:02:45.748Z,3.20
2018-02-19T08:05:13.214Z,3.40
2018-02-19T08:07:41.729Z,3.30
2018-02-19T08:10:09.961Z,3.10
2018-02-19T08:12:37.465Z,3.00
2018-02-19T08:15:05.034Z,3.20
2018-02-19T08:17:32.587Z,3.20
2018-02-19T08:20:00.062Z,3.30
2018-02-19T08:22:27.571Z,3.40
2018-02-19T08:24:55.038Z,3.20
2018-02-19T08:27:22.521Z,3.30
2018-02-19T08:29:50.758Z,3.50
2018-02-19T08:32:18.358Z,3.40
2018-02-19T08:34:46.855Z,3.50
2018-02-19T08:37:14.493Z,3.40
2018-02-19T08:39:41.971Z,3.40
2018-02-19T08:42:10.330Z,3.40
2018-02-19T08:44:37.822Z,3.40
2018-02-19T08:47:05.299Z,3.60
2018-02-19T08:49:32.774Z,3.70
2018-02-19T08:52:00.237Z,4.00
2018-02-19T08:54:27.735Z,4.20
2018-02-19T08:56:56.022Z,4.20
2018-02-19T08:59:23.517Z,4.20
2018-02-19T09:01:51.012Z,4.30
2018-02-19T09:04:19.258Z,4.20
2018-02-19T09:06:48.418Z,4.20
2018-02-19T09:09:15.901Z,4.40
2018-02-19T09:11:43.417Z,4.30
2018-02-19T09:14:10.926Z,4.40
2018-02-19T09:16:38.397Z,4.50
2018-02-19T09:19:05.915Z,4.20
2018-02-19T09:21:33.402Z,4.30
2018-02-19T09:24:00.920Z,4.20
2018-02-19T09:26:28.398Z,4.10
2018-02-19T09:28:55.898Z,4.30
2018-02-19T09:31:24.157Z,4.70
2018-02-19T09:33:51.624Z,4.70
2018-02-19T09:36:19.872Z,4.90
2018-02-19T09:38:47.361Z,4.80
2018-02-19T09:41:14.858Z,4.70
2018-02-19T09:43:42.326Z,4.50
2018-02-19T09:46:09.829Z,4.60
2018-02-19T09:48:38.067Z,4.90
2018-02-19T09:51:05.542Z,4.90
2018-02-19T09:53:33.022Z,5.10
2018-02-19T09:56:01.275Z,5.30
2018-02-19T09:58:28.766Z,5.20
2018-02-19T10:00:56.269Z,5.40
2018-02-19T10:03:23.738Z,5.50
2018-02-19T10:05:51.369Z,5.50
2018-02-19T10:08:18.843Z,5.60
2018-02-19T10:10:46.338Z,5.80
2018-02-19T10:13:13.816Z,5.90
2018-02-19T10:15:42.051Z,5.90
2018-02-19T10:18:09.530Z,5.80
2018-02-19T10:20:36.994Z,6.00
2018-02-19T10:23:05.266Z,6.00
2018-02-19T10:25:33.532Z,6.00
2018-02-19T10:28:01.091Z,6.00
2018-02-19T10:30:28.644Z,6.10
2018-02-19T10:32:56.205Z,6.20
2018-02-19T10:35:23.665Z,6.30
2018-02-19T10:37:51.150Z,6.60
2018-02-19T10:40:18.638Z,6.50
2018-02-19T10:42:46.242Z,6.70
2018-02-19T10:45:13.706Z,6.70
2018-02-19T10:47:41.952Z,6.70
2018-02-19T10:50:09.422Z,6.60
2018-02-19T10:52:37.017Z,6.70
2018-02-19T10:55:04.496Z,7.00
2018-02-19T10:57:31.974Z,6.70
2018-02-19T10:59:59.460Z,6.30
2018-02-19T11:02:26.957Z,6.20
2018-02-19T11:04:54.479Z,6.50
2018-02-19T11:07:22.023Z,7.20
2018-02-19T11:09:49.495Z,7.90
2018-02-19T11:12:17.734Z,8.60
2018-02-19T11:14:45.197Z,8.50
2018-02-19T11:17:12.658Z,8.90
2018-02-19T11:19:40.126Z,9.00
2018-02-19T11:22:09.097Z,9.10
2018-02-19T11:24:36.619Z,9.10
2018-02-19T11:27:04.091Z,9.70
2018-02-19T11:29:31.557Z,9.80
2018-02-19T11:31:59.022Z,9.80
2018-02-19T11:34:26.514Z,10.30
2018-02-19T11:36:53.989Z,10.40
2018-02-19T11:39:22.225Z,11.20
2018-02-19T11:41:49.709Z,11.20
2018-02-19T11:44:17.189Z,11.80
2018-02-19T11:46:44.666Z,12.50
2018-02-19T11:49:12.150Z,12.90
2018-02-19T11:51:39.620Z,13.00
2018-02-19T11:54:07.118Z,13.00
2018-02-19T11:56:34.646Z,12.70
2018-02-19T11:59:02.143Z,12.50
2018-02-19T12:01:29.756Z,12.20
2018-02-19T12:03:57.226Z,11.90
2018-02-19T12:06:25.485Z,11.10
2018-02-19T12:08:52.969Z,11.00
2018-02-19T12:11:21.321Z,10.80
2018-02-19T12:13:48.889Z,10.70
2018-02-19T12:16:16.360Z,10.70
2018-02-19T12:18:44.726Z,10.70
2018-02-19T12:21:12.978Z,11.00
2018-02-19T12:23:40.449Z,11.00
2018-02-19T12:26:07.959Z,11.20
2018-02-19T12:28:35.452Z,11.10
2018-02-19T12:31:02.941Z,10.80
2018-02-19T12:33:30.410Z,10.50
2018-02-19T12:35:57.945Z,10.20
2018-02-19T12:38:25.506Z,9.90
2018-02-19T12:40:52.961Z,9.60
2018-02-19T12:43:20.442Z,9.40
2018-02-19T12:45:47.911Z,9.20
2018-02-19T12:48:15.388Z,8.80
2018-02-19T12:50:42.884Z,8.50
2018-02-19T12:53:10.354Z,8.30
2018-02-19T12:55:38.580Z,8.90
2018-02-19T12:58:06.062Z,8.80
2018-02-19T13:00:33.601Z,8.80
2018-02-19T13:03:01.095Z,8.80
2018-02-19T13:05:29.362Z,9.00
2018-02-19T13:07:56.851Z,8.90
2018-02-19T13:10:24.310Z,9.10
2018-02-19T13:12:51.769Z,9.30
2018-02-19T13:15:19.284Z,9.20
2018-02-19T13:17:46.751Z,9.30
2018-02-19T13:20:14.218Z,9.20
2018-02-19T13:22:42.478Z,9.10
2018-02-19T13:25:09.952Z,9.10
2018-02-19T13:27:38.186Z,9.40
2018-02-19T13:30:05.669Z,9.30
2018-02-19T13:32:33.325Z,9.30
2018-02-19T13:35:00.806Z,9.10
2018-02-19T13:37:29.117Z,9.20
2018-02-19T13:39:56.599Z,9.10
2018-02-19T13:42:24.064Z,9.00
2018-02-19T13:44:51.557Z,8.80
2018-02-19T13:47:19.811Z,8.40
2018-02-19T13:49:47.297Z,8.30
2018-02-19T13:52:14.758Z,8.30
2018-02-19T13:54:42.221Z,8.20
2018-02-19T13:57:09.691Z,7.90
2018-02-19T13:59:37.186Z,7.70
2018-02-19T14:02:04.732Z,7.60
2018-02-19T14:04:32.206Z,7.70
2018-02-19T14:06:59.678Z,7.70
2018-02-19T14:09:27.221Z,7.90
2018-02-19T14:11:54.701Z,8.10
2018-02-19T14:14:22.942Z,8.50
2018-02-19T14:16:50.493Z,8.40
2018-02-19T14:19:17.992Z,8.60
2018-02-19T14:21:46.269Z,8.60
2018-02-19T14:24:14.503Z,8.60
2018-02-19T14:26:41.980Z,8.50
2018-02-19T14:29:09.453Z,8.60
2018-02-19T14:31:36.935Z,8.40
2018-02-19T14:34:04.402Z,8.20
2018-02-19T14:36:31.920Z,8.00
2018-02-19T14:39:00.177Z,7.90
2018-02-19T14:41:27.641Z,7.90
2018-02-19T14:43:55.113Z,7.60
2018-02-19T14:46:23.379Z,7.60
2018-02-19T14:48:50.848Z,7.60
2018-02-19T14:51:19.165Z,7.50
2018-02-19T14:53:46.596Z,7.50
2018-02-19T14:56:14.056Z,7.40
2018-02-19T14:58:41.533Z,7.30
2018-02-19T15:01:10.589Z,7.40
2018-02-19T15:03:38.049Z,7.40
2018-02-19T15:06:06.284Z,7.50
2018-02-19T15:08:33.763Z,7.50
2018-02-19T15:11:01.233Z,7.30
2018-02-19T15:13:28.701Z,7.30
2018-02-19T15:15:56.204Z,7.30
2018-02-19T15:18:23.692Z,7.30
2018-02-19T15:20:51.242Z,7.40
2018-02-19T15:23:19.471Z,7.30
2018-02-19T15:25:46.932Z,7.20
2018-02-19T15:28:14.408Z,7.20
2018-02-19T15:30:41.877Z,7.10
2018-02-19T15:33:09.450Z,7.00
2018-02-19T15:35:36.982Z,7.00
2018-02-19T15:38:04.450Z,7.10
2018-02-19T15:40:31.920Z,7.00
2018-02-19T15:42:59.490Z,7.00
2018-02-19T15:45:27.723Z,6.90
2018-02-19T15:47:55.204Z,6.90
2018-02-19T15:50:22.675Z,7.00
2018-02-19T15:52:50.153Z,6.90
2018-02-19T15:55:17.640Z,7.00
2018-02-19T15:57:45.109Z,6.80
2018-02-19T16:00:12.818Z,6.70
2018-02-19T16:02:41.127Z,6.70
2018-02-19T16:05:08.627Z,6.60
2018-02-19T16:07:36.108Z,6.60
2018-02-19T16:10:03.649Z,6.70
2018-02-19T16:12:31.209Z,6.70
2018-02-19T16:14:58.777Z,6.60
2018-02-19T16:17:26.331Z,6.50
2018-02-19T16:19:53.797Z,6.50
2018-02-19T16:22:22.042Z,6.40
2018-02-19T16:24:49.501Z,6.40
2018-02-19T16:27:17.027Z,6.40
2018-02-19T16:29:44.540Z,6.30
2018-02-19T16:32:12.760Z,6.40
2018-02-19T16:34:40.233Z,6.30
2018-02-19T16:37:07.714Z,6.30
2018-02-19T16:39:35.194Z,6.30
2018-02-19T16:42:03.450Z,6.40
2018-02-19T16:44:31.013Z,6.30
2018-02-19T16:46:58.483Z,6.40
2018-02-19T16:49:26.708Z,6.40
2018-02-19T16:51:54.196Z,6.30
2018-02-19T16:54:21.752Z,6.30
2018-02-19T16:56:49.306Z,6.30
2018-02-19T16:59:16.888Z,6.30
2018-02-19T17:01:44.356Z,6.30
2018-02-19T17:04:11.880Z,6.20
2018-02-19T17:06:39.297Z,6.10
2018-02-19T17:09:06.766Z,6.10
2018-02-19T17:11:34.242Z,6.00
2018-02-19T17:14:01.715Z,6.00
2018-02-19T17:16:29.281Z,5.90
2018-02-19T17:18:56.777Z,5.90
2018-02-19T17:21:24.244Z,5.90
2018-02-19T17:23:51.705Z,5.90
2018-02-19T17:26:19.193Z,5.90
2018-02-19T17:28:46.669Z,5.80
2018-02-19T17:31:14.130Z,5.70
2018-02-19T17:33:42.374Z,5.70
2018-02-19T17:36:09.837Z,5.70
2018-02-19T17:38:37.305Z,5.80
2018-02-19T17:41:04.767Z,5.70
2018-02-19T17:43:32.242Z,5.70
2018-02-19T17:46:00.468Z,5.80
2018-02-19T17:48:27.932Z,5.70
2018-02-19T17:50:55.515Z,5.70
2018-02-19T17:53:22.978Z,5.80
2018-02-19T17:55:51.202Z,5.70
2018-02-19T17:58:18.700Z,5.60
2018-02-19T18:00:46.257Z,5.60
2018-02-19T18:03:13.724Z,5.70
2018-02-19T18:05:41.187Z,5.60
2018-02-19T18:08:09.431Z,5.60
2018-02-19T18:10:36.888Z,5.60
2018-02-19T18:13:04.361Z,5.70
2018-02-19T18:15:31.921Z,5.70
2018-02-19T18:17:59.413Z,5.70
2018-02-19T18:20:26.933Z,5.70
2018-02-19T18:22:54.399Z,5.60
2018-02-19T18:25:21.861Z,5.60
2018-02-19T18:27:50.105Z,5.60
2018-02-19T18:30:17.577Z,5.50
2018-02-19T18:32:45.030Z,5.60
2018-02-19T18:35:12.580Z,5.60
2018-02-19T18:37:40.041Z,5.60
2018-02-19T18:40:07.506Z,5.60
2018-02-19T18:42:34.965Z,5.60
2018-02-19T18:45:02.521Z,5.50
2018-02-19T18:47:29.982Z,5.50
2018-02-19T18:49:57.497Z,5.40
2018-02-19T18:52:24.965Z,5.50
2018-02-19T18:54:52.450Z,5.40
2018-02-19T18:57:19.910Z,5.50
2018-02-19T18:59:47.373Z,5.50
2018-02-19T19:02:15.601Z,5.50
2018-02-19T19:04:43.105Z,5.40
2018-02-19T19:10:16.114Z,5.40
2018-02-19T19:12:44.354Z,5.30
2018-02-19T19:15:11.818Z,5.30
2018-02-19T19:17:39.385Z,5.30
2018-02-19T19:20:06.844Z,5.30
2018-02-19T19:22:34.310Z,5.30
2018-02-19T19:25:01.865Z,5.30
2018-02-19T19:27:29.348Z,5.30
2018-02-19T19:29:57.577Z,5.30
2018-02-19T19:32:25.074Z,5.20
2018-02-19T19:34:53.325Z,5.30
2018-02-19T19:37:20.810Z,5.30
2018-02-19T19:39:49.043Z,5.30
2018-02-19T19:42:16.518Z,5.20
2018-02-19T19:44:44.042Z,5.30
2018-02-19T19:47:11.543Z,5.30
2018-02-19T19:49:39.810Z,5.20
2018-02-19T19:52:08.050Z,5.20
2018-02-19T19:54:35.522Z,5.20
2018-02-19T19:57:03.440Z,5.20
2018-02-19T19:59:31.685Z,5.10
2018-02-19T20:01:59.249Z,5.10
2018-02-19T20:04:26.717Z,5.10
2018-02-19T20:06:54.946Z,5.00
2018-02-19T20:09:22.440Z,5.00
2018-02-19T20:11:49.901Z,5.00
2018-02-19T20:14:18.137Z,4.90
2018-02-19T20:16:45.613Z,4.90
2018-02-19T20:19:13.082Z,4.90
2018-02-19T20:21:40.549Z,4.80
2018-02-19T20:24:08.807Z,4.70
2018-02-19T20:26:36.286Z,4.70
2018-02-19T20:29:04.508Z,4.60
2018-02-19T20:31:31.993Z,4.60
2018-02-19T20:33:59.448Z,4.60
2018-02-19T20:36:27.014Z,4.60
2018-02-19T20:38:54.486Z,4.50
2018-02-19T20:41:22.724Z,4.50
2018-02-19T20:43:50.184Z,4.40
2018-02-19T20:46:17.658Z,4.50
2018-02-19T20:48:45.214Z,4.50
2018-02-19T20:51:13.445Z,4.40
2018-02-19T20:53:40.913Z,4.40
2018-02-19T20:56:08.385Z,4.40
2018-02-19T20:58:35.868Z,4.40
2018-02-19T21:01:03.326Z,4.40
2018-02-19T21:03:30.789Z,4.40
2018-02-19T21:05:59.029Z,4.40
2018-02-19T21:08:26.496Z,4.40
2018-02-19T21:10:54.062Z,4.40
2018-02-19T21:13:21.516Z,4.30
2018-02-19T21:15:49.011Z,4.30
2018-02-19T21:18:17.254Z,4.30
2018-02-19T21:20:44.713Z,4.30
2018-02-19T21:23:12.184Z,4.40
2018-02-19T21:25:40.412Z,4.40
2018-02-19T21:28:08.001Z,4.40
2018-02-19T21:30:36.224Z,4.40
2018-02-19T21:33:03.703Z,4.30
2018-02-19T21:35:31.195Z,4.40
2018-02-19T21:37:58.661Z,4.40
2018-02-19T21:40:26.926Z,4.30
2018-02-19T21:42:54.466Z,4.30
2018-02-19T21:45:21.924Z,4.30
2018-02-19T21:47:49.397Z,4.20
2018-02-19T21:50:16.861Z,4.20
2018-02-19T21:52:44.320Z,4.20
2018-02-19T21:55:11.780Z,4.10
2018-02-19T21:57:40.138Z,4.10
2018-02-19T22:00:07.619Z,4.00
2018-02-19T22:02:35.851Z,4.20
2018-02-19T22:05:03.329Z,4.20
2018-02-19T22:07:30.789Z,4.20
2018-02-19T22:09:58.348Z,4.20
2018-02-19T22:12:25.814Z,4.20
2018-02-19T22:14:54.058Z,4.20
2018-02-19T22:17:21.624Z,4.20
2018-02-19T22:19:49.093Z,4.20
2018-02-19T22:22:16.703Z,4.20
2018-02-19T22:24:44.224Z,4.10
2018-02-19T22:27:12.446Z,4.10
2018-02-19T22:29:39.945Z,4.10
2018-02-19T22:32:07.493Z,4.10
2018-02-19T22:34:35.113Z,4.10
2018-02-19T22:37:02.577Z,4.10
2018-02-19T22:39:30.051Z,4.00
2018-02-19T22:41:57.533Z,3.90
2018-02-19T22:44:25.012Z,3.80
2018-02-19T22:46:52.488Z,3.80
2018-02-19T22:49:20.022Z,3.70
2018-02-19T22:51:48.262Z,3.60
2018-02-19T22:54:15.720Z,3.50
2018-02-19T22:56:43.189Z,3.60
2018-02-19T22:59:10.644Z,3.50
2018-02-19T23:01:38.116Z,3.40
2018-02-19T23:04:06.349Z,3.30
2018-02-19T23:06:33.836Z,3.30
2018-02-19T23:09:01.310Z,3.30
2018-02-19T23:11:29.574Z,3.10
2018-02-19T23:13:57.037Z,3.10
2018-02-19T23:16:24.590Z,3.20
2018-02-19T23:18:52.142Z,3.10
2018-02-19T23:21:19.689Z,3.10
2018-02-19T23:23:47.162Z,3.00
2018-02-19T23:26:14.722Z,3.10
2018-02-19T23:28:42.210Z,3.10
2018-02-19T23:31:09.733Z,3.20
2018-02-19T23:33:37.201Z,3.00
2018-02-19T23:36:05.432Z,3.00
2018-02-19T23:38:32.921Z,2.90
2018-02-19T23:41:00.381Z,3.00
2018-02-19T23:43:28.643Z,3.00
2018-02-19T23:45:56.114Z,3.00
2018-02-19T23:48:23.573Z,3.00
2018-02-19T23:50:51.809Z,3.00
2018-02-19T23:53:19.340Z,3.00
2018-02-19T23:55:46.813Z,2.90
2018-02-19T23:58:14.418Z,2.90
